Time;durP1;ratioP1;P1;durP2;ratioP2;P2;SDS_P1;SDS_P2;PMS_P1;PMS_P2;Temp;Humidity;BMP_temperature;BMP_pressure;BME280_temperature;BME280_humidity;BME280_pressure;Samples;Min_cycle;Max_cycle;Signal;HPM_P1;HPM_P2
2023/06/02 00:00:47;;;;;;;27.85;7.07;;;;;;;18.70;55.65;101037.13;4995770;28;20022;-61
2023/06/02 00:03:14;;;;;;;37.45;7.85;;;;;;;18.32;56.21;101039.91;4996266;28;20037;-62
2023/06/02 00:05:40;;;;;;;25.88;6.72;;;;;;;18.39;55.53;101040.56;4995881;28;20081;-61
2023/06/02 00:08:06;;;;;;;21.33;6.88;;;;;;;17.88;57.65;101042.63;4995461;28;20034;-61
2023/06/02 00:10:32;;;;;;;28.75;7.75;;;;;;;18.02;58.00;101041.19;4995470;28;20019;-62
2023/06/02 00:12:59;;;;;;;27.35;6.88;;;;;;;17.94;57.00;101036.22;4995488;28;20459;-63
2023/06/02 00:15:25;;;;;;;24.92;7.72;;;;;;;18.10;59.29;101037.19;4995623;28;20114;-65
2023/06/02 00:17:51;;;;;;;22.20;6.70;;;;;;;18.03;57.49;101039.28;4995705;28;20077;-65
2023/06/02 00:20:17;;;;;;;27.30;7.38;;;;;;;18.25;57.16;101050.13;4995394;28;20026;-60
2023/06/02 00:22:46;;;;;;;24.77;6.72;;;;;;;18.59;57.07;101040.78;4994972;28;20483;-58
2023/06/02 00:25:12;;;;;;;22.45;6.43;;;;;;;18.23;56.03;101036.03;4995235;28;20031;-60
2023/06/02 00:27:39;;;;;;;19.80;7.13;;;;;;;17.93;56.64;101042.66;4995167;28;20029;-63
2023/06/02 00:30:06;;;;;;;31.70;7.35;;;;;;;17.55;58.11;101033.44;4994952;28;20023;-59
2023/06/02 00:32:32;;;;;;;31.63;7.15;;;;;;;17.50;59.22;101044.19;4994875;28;20022;-59
2023/06/02 00:34:59;;;;;;;29.08;7.30;;;;;;;17.38;58.58;101033.47;4995248;28;20026;-60
2023/06/02 00:37:26;;;;;;;24.48;6.78;;;;;;;17.36;59.45;101034.75;4994006;28;20046;-61
2023/06/02 00:39:52;;;;;;;29.05;7.88;;;;;;;17.26;59.36;101027.28;4995204;28;20041;-59
2023/06/02 00:42:19;;;;;;;21.20;6.30;;;;;;;17.50;59.13;101032.53;4994787;28;20027;-61
2023/06/02 00:44:45;;;;;;;31.42;7.25;;;;;;;17.39;59.45;101045.91;4994872;28;20069;-61
2023/06/02 00:47:12;;;;;;;23.42;6.95;;;;;;;17.46;60.09;101043.03;4994883;28;20026;-61
2023/06/02 00:49:38;;;;;;;25.30;6.82;;;;;;;17.33;59.54;101044.19;4994796;28;20057;-61
2023/06/02 00:52:05;;;;;;;26.10;6.68;;;;;;;17.41;60.47;101040.25;4994633;28;20126;-61
2023/06/02 00:54:32;;;;;;;25.55;7.15;;;;;;;17.06;61.58;101040.47;4994587;28;20069;-65
2023/06/02 00:56:58;;;;;;;31.35;7.82;;;;;;;17.09;59.69;101039.97;4994493;28;20407;-65
2023/06/02 00:59:24;;;;;;;24.35;7.03;;;;;;;16.84;61.26;101051.19;4994592;28;20117;-65
2023/06/02 01:01:53;;;;;;;23.40;7.18;;;;;;;16.89;61.29;101032.34;4994586;28;20041;-65
2023/06/02 01:04:21;;;;;;;24.33;7.53;;;;;;;16.71;61.88;101037.94;4994375;28;20414;-64
2023/06/02 01:06:50;;;;;;;31.15;6.90;;;;;;;16.73;62.93;101041.25;4994266;28;20026;-66
2023/06/02 01:09:16;;;;;;;22.60;6.93;;;;;;;17.00;61.67;101039.56;4994358;28;20014;-65
2023/06/02 01:11:48;;;;;;;26.42;7.88;;;;;;;16.92;61.68;101031.84;4994395;28;20034;-65
2023/06/02 01:14:15;;;;;;;29.48;6.93;;;;;;;16.76;62.10;101043.44;4994504;28;20034;-65
2023/06/02 01:16:44;;;;;;;21.98;6.88;;;;;;;16.68;61.46;101024.91;4994164;28;20026;-65
2023/06/02 01:19:14;;;;;;;31.40;8.50;;;;;;;16.44;62.48;101029.56;4994130;28;20023;-64
2023/06/02 01:21:47;;;;;;;27.50;8.02;;;;;;;16.27;63.00;101030.31;4994491;28;20039;-65
2023/06/02 01:24:14;;;;;;;23.95;7.07;;;;;;;16.42;62.06;101053.28;4994506;28;20033;-65
2023/06/02 01:26:41;;;;;;;32.80;8.38;;;;;;;16.28;62.91;101042.78;4994063;28;20475;-65
2023/06/02 01:29:09;;;;;;;26.45;7.38;;;;;;;16.32;62.68;101045.78;5008601;28;20061;-65
2023/06/02 01:31:49;;;;;;;24.70;7.22;;;;;;;16.32;63.10;101038.53;4996149;28;20032;-66
2023/06/02 01:34:44;;;;;;;31.55;7.15;;;;;;;16.10;63.30;101041.06;4994697;28;20471;-67
2023/06/02 01:37:13;;;;;;;29.98;7.70;;;;;;;16.08;62.86;101045.84;4993633;28;20080;-66
2023/06/02 01:39:40;;;;;;;31.65;7.32;;;;;;;16.27;62.70;101040.31;4993749;28;20438;-67
2023/06/02 01:42:08;;;;;;;23.98;7.82;;;;;;;15.94;62.50;101049.06;4993818;28;20085;-71
2023/06/02 01:44:36;;;;;;;26.45;7.47;;;;;;;16.06;63.44;101058.78;4994057;28;20030;-69
2023/06/02 01:47:03;;;;;;;41.05;7.85;;;;;;;16.01;63.71;101053.25;4993744;28;20026;-71
2023/06/02 01:49:29;;;;;;;30.98;7.50;;;;;;;16.06;63.00;101049.84;4993643;28;20027;-71
2023/06/02 01:51:55;;;;;;;37.72;8.85;;;;;;;15.85;64.12;101035.09;4993746;28;20018;-71
2023/06/02 01:54:22;;;;;;;26.45;7.00;;;;;;;16.13;63.15;101042.44;4994000;28;20022;-72
2023/06/02 01:56:48;;;;;;;28.20;6.90;;;;;;;16.21;62.37;101035.84;4993631;28;20353;-71
2023/06/02 01:59:16;;;;;;;25.48;7.53;;;;;;;16.21;62.76;101038.53;4993951;28;20036;-48
2023/06/02 02:01:44;;;;;;;20.92;7.18;;;;;;;16.25;62.47;101037.00;4993884;28;20030;-54
2023/06/02 02:04:11;;;;;;;28.60;7.03;;;;;;;16.28;61.74;101031.97;4993526;28;20489;-50
2023/06/02 02:06:39;;;;;;;30.50;8.10;;;;;;;16.24;61.80;101036.19;4993762;28;20113;-48
2023/06/02 02:09:07;;;;;;;24.00;6.47;;;;;;;16.30;61.56;101037.13;4994293;28;20468;-51
2023/06/02 02:11:34;;;;;;;31.20;8.27;;;;;;;16.20;62.41;101045.00;4993517;28;20084;-49
2023/06/02 02:14:04;;;;;;;24.85;7.15;;;;;;;16.28;62.23;101042.78;4994149;28;20068;-49
2023/06/02 02:16:30;;;;;;;30.98;7.75;;;;;;;16.61;61.30;101033.16;4994399;28;20479;-50
2023/06/02 02:18:58;;;;;;;32.03;7.47;;;;;;;16.52;61.50;101042.69;4993496;28;20505;-51
2023/06/02 02:21:28;;;;;;;28.38;7.65;;;;;;;16.50;61.52;101051.03;4993199;28;20117;-51
2023/06/02 02:23:54;;;;;;;26.70;7.32;;;;;;;16.67;61.23;101055.69;4992861;28;20125;-48
2023/06/02 02:26:21;;;;;;;23.88;6.47;;;;;;;16.57;60.94;101046.31;4993160;28;20031;-51
2023/06/02 02:28:48;;;;;;;28.73;7.50;;;;;;;16.33;61.76;101055.56;4993836;28;20084;-48
2023/06/02 02:31:14;;;;;;;25.77;9.15;;;;;;;16.49;61.56;101057.50;4993222;28;20030;-51
2023/06/02 02:33:41;;;;;;;24.27;7.03;;;;;;;16.47;61.50;101054.22;4993312;28;20040;-48
2023/06/02 02:36:08;;;;;;;26.52;6.97;;;;;;;16.38;61.89;101052.97;4993100;28;20038;-51
2023/06/02 02:38:34;;;;;;;29.92;7.85;;;;;;;16.22;61.64;101072.63;4993251;28;20129;-53
2023/06/02 02:41:00;;;;;;;26.10;6.95;;;;;;;16.45;60.95;101053.66;4993377;28;20109;-48
2023/06/02 02:43:27;;;;;;;24.58;7.13;;;;;;;16.12;62.15;101056.19;5008316;28;20042;-50
2023/06/02 02:45:53;;;;;;;26.75;6.88;;;;;;;15.99;62.38;101050.00;4993204;28;20493;-48
2023/06/02 02:48:19;;;;;;;29.95;6.82;;;;;;;15.75;63.42;101061.84;4993129;28;20041;-50
2023/06/02 02:50:45;;;;;;;26.38;8.00;;;;;;;15.45;64.63;101053.81;4993225;28;20031;-50
2023/06/02 02:53:15;;;;;;;37.17;8.23;;;;;;;15.39;65.04;101052.88;4993738;28;20363;-48
2023/06/02 02:55:44;;;;;;;22.70;7.70;;;;;;;15.20;65.54;101062.91;4993389;28;20022;-49
2023/06/02 02:58:10;;;;;;;27.67;7.95;;;;;;;14.77;67.24;101052.38;4993563;28;20110;-51
2023/06/02 03:00:37;;;;;;;27.02;7.80;;;;;;;14.62;68.25;101051.94;4994997;28;20022;-48
2023/06/02 03:03:05;;;;;;;27.70;8.63;;;;;;;14.53;68.35;101060.31;4996663;28;20058;-49
2023/06/02 03:05:34;;;;;;;26.42;7.82;;;;;;;14.46;69.13;101073.03;4996974;28;20022;-51
2023/06/02 03:08:02;;;;;;;28.80;8.70;;;;;;;14.37;69.09;101068.97;4996696;28;20026;-52
2023/06/02 03:10:28;;;;;;;28.88;8.23;;;;;;;14.30;69.59;101065.56;4996559;28;20053;-51
2023/06/02 03:12:54;;;;;;;27.30;9.07;;;;;;;14.23;69.93;101056.75;4996553;28;20025;-51
2023/06/02 03:15:21;;;;;;;24.90;8.88;;;;;;;14.13;70.36;101051.06;4996554;28;20027;-49
2023/06/02 03:17:50;;;;;;;28.08;7.90;;;;;;;14.06;70.79;101061.09;4996441;28;20018;-51
2023/06/02 03:20:17;;;;;;;27.77;8.40;;;;;;;13.98;71.14;101054.09;4996293;28;20022;-48
2023/06/02 03:22:44;;;;;;;29.05;9.02;;;;;;;13.84;71.50;101074.97;4996146;28;20030;-48
2023/06/02 03:25:10;;;;;;;28.95;8.93;;;;;;;13.79;71.66;101072.09;4996720;28;20033;-48
2023/06/02 03:27:36;;;;;;;26.92;8.30;;;;;;;13.78;71.49;101075.84;4996446;28;20026;-51
2023/06/02 03:30:03;;;;;;;30.50;9.25;;;;;;;13.45;72.81;101068.88;4996198;28;20026;-51
2023/06/02 03:32:29;;;;;;;28.80;9.32;;;;;;;13.54;72.65;101069.41;4996284;28;20390;-49
2023/06/02 03:34:55;;;;;;;27.65;9.02;;;;;;;13.64;72.27;101077.00;4996092;28;20379;-53
2023/06/02 03:37:22;;;;;;;30.73;9.70;;;;;;;13.43;73.14;101078.19;4996100;28;20053;-52
2023/06/02 03:39:48;;;;;;;34.85;9.00;;;;;;;13.43;73.46;101083.56;4995978;28;20386;-52
2023/06/02 03:42:14;;;;;;;41.63;9.82;;;;;;;13.41;73.67;101081.13;4996073;28;20034;-53
2023/06/02 03:44:40;;;;;;;42.60;10.55;;;;;;;13.23;74.06;101078.34;4995904;28;20034;-51
2023/06/02 03:47:07;;;;;;;31.98;8.52;;;;;;;13.35;73.62;101073.94;4996283;28;20026;-51
2023/06/02 03:49:36;;;;;;;28.48;9.32;;;;;;;13.16;74.58;101074.88;4995850;28;20022;-52
2023/06/02 03:52:03;;;;;;;39.53;9.82;;;;;;;13.14;74.56;101075.06;4995835;28;20550;-51
2023/06/02 03:54:29;;;;;;;40.22;10.18;;;;;;;13.10;74.42;101073.88;4995876;28;20060;-52
2023/06/02 03:56:55;;;;;;;31.88;8.77;;;;;;;13.12;74.36;101070.97;4995626;28;20027;-52
2023/06/02 03:59:21;;;;;;;32.00;8.82;;;;;;;13.14;74.77;101075.06;4995618;28;20026;-52
2023/06/02 04:01:48;;;;;;;39.85;9.27;;;;;;;13.06;75.40;101075.34;4995627;28;20030;-51
2023/06/02 04:04:14;;;;;;;41.35;9.52;;;;;;;13.02;75.79;101086.72;4995515;28;20053;-52
2023/06/02 04:06:41;;;;;;;31.65;8.38;;;;;;;12.98;75.78;101083.66;4995469;28;20157;-52
2023/06/02 04:09:12;;;;;;;29.17;8.90;;;;;;;12.98;75.85;101082.81;4995516;28;20033;-49
2023/06/02 04:11:38;;;;;;;38.67;9.10;;;;;;;12.94;76.11;101085.97;4994915;28;20085;-52
2023/06/02 04:14:04;;;;;;;25.90;8.70;;;;;;;12.90;75.97;101089.28;4995392;28;20070;-52
2023/06/02 04:16:31;;;;;;;25.52;8.98;;;;;;;12.80;75.99;101088.91;4995226;28;20121;-53
2023/06/02 04:18:57;;;;;;;29.05;9.00;;;;;;;12.81;76.35;101088.69;4995016;28;20023;-52
2023/06/02 04:21:23;;;;;;;35.55;8.65;;;;;;;12.83;76.31;101093.88;4995266;28;20104;-50
2023/06/02 04:23:49;;;;;;;30.80;8.65;;;;;;;12.90;75.98;101090.09;4995168;28;20451;-52
2023/06/02 04:26:15;;;;;;;31.90;8.88;;;;;;;12.92;76.03;101103.31;4995136;28;20471;-52
2023/06/02 04:28:42;;;;;;;36.92;8.63;;;;;;;12.88;76.17;101107.47;4995024;28;20471;-49
2023/06/02 04:31:11;;;;;;;26.55;9.50;;;;;;;12.82;76.12;101109.16;4995501;28;20027;-50
2023/06/02 04:33:37;;;;;;;30.27;9.07;;;;;;;12.71;77.04;101107.13;4995592;28;20030;-51
2023/06/02 04:36:05;;;;;;;31.58;9.15;;;;;;;12.67;77.00;101112.13;4994884;28;20104;-51
2023/06/02 04:38:31;;;;;;;31.10;9.98;;;;;;;12.60;77.48;101119.38;4995520;28;20483;-51
2023/06/02 04:40:57;;;;;;;40.33;9.43;;;;;;;12.65;77.27;101113.34;4994871;28;20026;-51
2023/06/02 04:43:24;;;;;;;31.38;8.77;;;;;;;12.67;77.02;101122.03;4994827;28;20037;-52
2023/06/02 04:45:50;;;;;;;36.22;8.88;;;;;;;12.67;77.02;101124.72;4995249;28;20042;-52
2023/06/02 04:48:16;;;;;;;37.63;9.65;;;;;;;12.58;77.80;101121.44;4994637;28;20034;-51
2023/06/02 04:50:42;;;;;;;42.83;9.68;;;;;;;12.57;78.00;101129.72;4995360;28;20106;-51
2023/06/02 04:53:09;;;;;;;29.00;8.80;;;;;;;12.54;77.55;101133.63;4995462;28;20459;-51
2023/06/02 04:55:35;;;;;;;25.38;8.77;;;;;;;12.49;77.68;101135.31;4994698;28;20022;-49
2023/06/02 04:58:01;;;;;;;32.95;9.30;;;;;;;12.58;77.63;101139.41;4994467;28;20026;-50
2023/06/02 05:00:28;;;;;;;31.13;8.82;;;;;;;12.55;78.06;101139.84;4994371;28;20084;-49
2023/06/02 05:02:55;;;;;;;42.72;10.68;;;;;;;12.57;77.75;101135.91;4994736;28;20042;-52
2023/06/02 05:05:21;;;;;;;34.05;9.20;;;;;;;12.66;77.61;101139.19;4994305;28;20486;-48
2023/06/02 05:07:48;;;;;;;32.03;8.70;;;;;;;12.62;77.40;101129.91;4994394;28;20030;-51
2023/06/02 05:10:14;;;;;;;30.08;9.50;;;;;;;12.69;77.12;101136.06;4994418;28;20030;-49
2023/06/02 05:12:41;;;;;;;37.60;8.18;;;;;;;12.66;77.51;101145.38;4994229;28;20040;-49
2023/06/02 05:15:08;;;;;;;40.88;9.63;;;;;;;12.56;78.25;101147.69;4994213;28;20092;-51
2023/06/02 05:17:34;;;;;;;35.63;9.50;;;;;;;12.59;77.98;101141.06;4994527;28;20030;-51
2023/06/02 05:20:01;;;;;;;39.08;9.98;;;;;;;12.64;77.83;101149.31;4994030;28;20264;-51
2023/06/02 05:22:27;;;;;;;36.33;9.27;;;;;;;12.55;77.89;101150.59;4993975;28;20117;-49
2023/06/02 05:24:54;;;;;;;39.90;9.30;;;;;;;12.57;77.62;101154.72;4994055;28;20430;-50
2023/06/02 05:27:20;;;;;;;30.70;9.05;;;;;;;12.58;77.72;101152.84;4994007;28;20030;-51
2023/06/02 05:29:46;;;;;;;26.33;9.52;;;;;;;12.58;77.90;101160.91;4994070;28;20018;-48
2023/06/02 05:32:13;;;;;;;31.80;8.90;;;;;;;12.46;78.13;101162.59;4993912;28;20467;-48
2023/06/02 05:34:40;;;;;;;30.65;9.63;;;;;;;12.48;78.00;101161.34;4993735;28;20576;-49
2023/06/02 05:37:06;;;;;;;25.08;9.27;;;;;;;12.54;78.02;101157.81;4993440;28;20487;-51
2023/06/02 05:39:32;;;;;;;37.28;10.00;;;;;;;12.52;78.51;101161.75;4993867;28;20096;-51
2023/06/02 05:41:59;;;;;;;32.65;9.55;;;;;;;12.55;78.80;101164.84;4993715;28;20037;-48
2023/06/02 05:44:25;;;;;;;31.90;9.75;;;;;;;12.58;78.33;101167.09;4993573;28;20121;-50
2023/06/02 05:46:51;;;;;;;35.90;9.98;;;;;;;12.57;78.06;101161.94;4993913;28;20034;-50
2023/06/02 05:49:18;;;;;;;42.08;9.70;;;;;;;12.50;78.18;101159.28;4993874;28;20487;-49
2023/06/02 05:51:44;;;;;;;33.78;8.60;;;;;;;12.58;78.40;101172.47;4993718;28;20030;-50
2023/06/02 05:54:10;;;;;;;36.60;10.60;;;;;;;12.34;79.45;101176.66;4993955;28;20364;-52
2023/06/02 05:56:37;;;;;;;27.33;9.68;;;;;;;12.39;79.40;101184.09;4993937;28;20026;-50
2023/06/02 05:59:03;;;;;;;39.83;10.30;;;;;;;12.41;79.29;101169.41;4993945;28;20085;-51
2023/06/02 06:01:29;;;;;;;34.70;10.02;;;;;;;12.51;78.51;101166.28;4994544;28;20027;-51
2023/06/02 06:03:56;;;;;;;34.53;9.82;;;;;;;12.49;78.66;101164.84;4993957;28;20037;-52
2023/06/02 06:06:22;;;;;;;40.13;9.48;;;;;;;12.42;78.90;101168.38;4993694;28;20483;-49
2023/06/02 06:08:48;;;;;;;36.72;10.48;;;;;;;12.51;78.25;101174.34;4993585;28;20034;-48
2023/06/02 06:11:14;;;;;;;35.63;8.85;;;;;;;12.49;78.16;101180.94;4994084;28;20084;-49
2023/06/02 06:13:41;;;;;;;32.63;9.68;;;;;;;12.48;78.39;101179.31;4993729;28;20061;-50
2023/06/02 06:16:07;;;;;;;32.30;9.65;;;;;;;12.56;78.40;101174.53;4993452;28;20377;-51
2023/06/02 06:18:33;;;;;;;35.75;9.60;;;;;;;12.46;78.88;101170.66;4993624;28;20049;-49
2023/06/02 06:21:00;;;;;;;34.95;9.23;;;;;;;12.45;78.95;101167.13;4993969;28;20037;-51
2023/06/02 06:23:29;;;;;;;45.65;9.68;;;;;;;12.48;78.91;101171.25;4993926;28;20022;-51
2023/06/02 06:25:55;;;;;;;39.00;10.52;;;;;;;12.33;79.64;101177.69;4993813;28;20022;-48
2023/06/02 06:28:22;;;;;;;36.08;9.88;;;;;;;12.30;79.92;101178.09;4993647;28;20502;-49
2023/06/02 06:30:49;;;;;;;44.85;9.40;;;;;;;12.31;79.47;101177.06;4993256;28;20045;-48
2023/06/02 06:33:16;;;;;;;43.33;10.40;;;;;;;12.29;79.90;101178.31;4993134;28;20026;-49
2023/06/02 06:35:42;;;;;;;37.85;9.52;;;;;;;12.21;80.11;101190.06;4995083;28;20487;-48
2023/06/02 06:38:08;;;;;;;37.97;10.05;;;;;;;12.15;80.45;101182.88;4997453;28;20518;-47
2023/06/02 06:40:34;;;;;;;31.63;9.98;;;;;;;12.23;80.50;101179.97;4997171;28;20023;-47
2023/06/02 06:43:01;;;;;;;31.58;9.90;;;;;;;12.20;80.60;101180.38;4996797;28;20095;-47
2023/06/02 06:45:27;;;;;;;34.45;10.45;;;;;;;12.18;80.75;101187.00;4996999;28;20106;-49
2023/06/02 06:47:53;;;;;;;27.55;9.68;;;;;;;12.13;81.02;101179.56;4997222;28;20479;-48
2023/06/02 06:50:19;;;;;;;35.83;9.60;;;;;;;12.15;80.98;101183.69;4996955;28;20088;-48
2023/06/02 06:52:47;;;;;;;38.55;10.32;;;;;;;12.06;81.53;101190.31;4996857;28;20026;-48
2023/06/02 06:55:14;;;;;;;31.35;9.25;;;;;;;12.19;81.32;101189.47;4997034;28;20034;-47
2023/06/02 06:57:40;;;;;;;41.17;9.38;;;;;;;12.27;80.49;101188.41;4996827;28;20386;-53
2023/06/02 07:00:07;;;;;;;37.30;9.55;;;;;;;12.23;80.65;101193.41;4996952;28;20038;-48
2023/06/02 07:02:33;;;;;;;37.55;10.57;;;;;;;12.14;81.04;101191.94;4996720;28;20023;-52
2023/06/02 07:04:59;;;;;;;38.08;10.05;;;;;;;12.06;81.23;101192.19;4996851;28;20458;-50
2023/06/02 07:07:25;;;;;;;37.25;9.05;;;;;;;12.13;81.18;101195.69;4996832;28;20041;-50
2023/06/02 07:09:53;;;;;;;46.00;10.57;;;;;;;12.04;81.66;101188.84;4996976;28;20030;-49
2023/06/02 07:12:19;;;;;;;31.63;9.43;;;;;;;12.11;81.34;101195.88;4996851;28;20030;-49
2023/06/02 07:14:46;;;;;;;37.83;9.60;;;;;;;12.12;81.70;101188.66;4996695;28;20436;-48
2023/06/02 07:17:12;;;;;;;39.60;10.68;;;;;;;12.00;81.85;101183.09;4996907;28;20419;-50
2023/06/02 07:19:38;;;;;;;36.22;9.50;;;;;;;12.06;81.78;101186.81;4996505;28;20490;-48
2023/06/02 07:22:05;;;;;;;36.40;9.48;;;;;;;12.03;81.70;101184.53;4996865;28;20033;-50
2023/06/02 07:24:31;;;;;;;43.15;9.73;;;;;;;12.03;81.62;101185.34;4996315;28;20301;-51
2023/06/02 07:26:57;;;;;;;31.35;10.07;;;;;;;12.00;81.96;101183.09;4996322;28;20026;-50
2023/06/02 07:29:24;;;;;;;33.65;9.70;;;;;;;12.04;81.81;101197.72;4996975;28;20367;-50
2023/06/02 07:31:50;;;;;;;31.42;9.38;;;;;;;12.06;81.82;101192.19;4996259;28;20497;-48
2023/06/02 07:34:16;;;;;;;37.13;9.48;;;;;;;12.04;81.54;101196.91;4996348;28;20037;-50
2023/06/02 07:36:44;;;;;;;34.00;8.85;;;;;;;11.99;81.50;101192.16;4996100;28;20053;-48
2023/06/02 07:39:11;;;;;;;34.20;9.63;;;;;;;12.03;81.45;101197.94;4996333;28;20459;-53
2023/06/02 07:41:37;;;;;;;34.22;9.68;;;;;;;12.03;81.61;101187.22;4996507;28;20027;-49
2023/06/02 07:44:03;;;;;;;38.28;10.10;;;;;;;11.87;82.54;101183.09;4996302;28;20375;-51
2023/06/02 07:46:30;;;;;;;42.92;10.70;;;;;;;11.89;82.55;101187.22;4995678;28;20105;-51
2023/06/02 07:48:57;;;;;;;35.53;9.50;;;;;;;11.92;82.35;101193.19;4996211;28;20351;-49
2023/06/02 07:51:24;;;;;;;33.33;9.70;;;;;;;12.02;82.33;101189.06;4995788;28;20027;-49
2023/06/02 07:53:51;;;;;;;30.67;9.98;;;;;;;12.04;82.34;101194.22;4995841;28;20419;-50
2023/06/02 07:56:17;;;;;;;37.10;9.85;;;;;;;11.97;82.76;101196.09;4995891;28;20026;-52
2023/06/02 07:58:45;;;;;;;36.20;10.68;;;;;;;12.03;82.14;101192.56;4995634;28;20508;-49
2023/06/02 08:01:12;;;;;;;42.38;10.52;;;;;;;12.02;81.66;101185.56;4995706;28;20042;-49
2023/06/02 08:03:39;;;;;;;35.35;9.32;;;;;;;11.93;82.39;101194.84;4995672;28;20033;-49
2023/06/02 08:06:06;;;;;;;32.05;10.02;;;;;;;11.86;82.66;101187.63;4995621;28;20022;-52
2023/06/02 08:08:32;;;;;;;34.67;10.23;;;;;;;11.96;82.05;101189.09;4995697;28;20030;-52
2023/06/02 08:10:59;;;;;;;35.53;10.30;;;;;;;11.91;82.29;101199.59;4995563;28;20030;-52
2023/06/02 08:13:25;;;;;;;33.83;9.65;;;;;;;11.91;82.45;101204.97;4995481;28;20053;-53
2023/06/02 08:15:52;;;;;;;34.63;9.98;;;;;;;11.94;82.39;101201.84;4995288;28;20129;-51
2023/06/02 08:18:18;;;;;;;39.58;9.85;;;;;;;11.91;82.65;101203.09;4995481;28;20061;-51
2023/06/02 08:20:45;;;;;;;33.10;9.15;;;;;;;11.90;82.68;101206.81;4995293;28;20033;-51
2023/06/02 08:23:12;;;;;;;38.45;10.82;;;;;;;11.78;83.51;101211.13;4995174;28;20081;-52
2023/06/02 08:25:39;;;;;;;46.95;11.13;;;;;;;11.77;83.61;101209.44;4995206;28;20026;-52
2023/06/02 08:28:09;;;;;;;31.88;10.65;;;;;;;11.80;83.47;101206.38;4995533;28;20034;-51
2023/06/02 08:30:36;;;;;;;36.40;10.00;;;;;;;11.88;83.15;101204.34;4995540;28;20019;-52
2023/06/02 08:33:04;;;;;;;36.75;9.85;;;;;;;11.82;83.44;101205.16;4995379;28;20494;-51
2023/06/02 08:35:32;;;;;;;36.33;10.68;;;;;;;11.81;83.56;101208.88;4994844;28;20383;-51
2023/06/02 08:38:02;;;;;;;43.20;10.55;;;;;;;11.86;83.09;101214.44;4994969;28;20030;-51
2023/06/02 08:40:37;;;;;;;31.27;9.70;;;;;;;11.80;83.48;101206.38;4995253;28;20061;-52
2023/06/02 08:43:13;;;;;;;44.25;10.68;;;;;;;11.76;84.01;101213.16;4994904;28;20030;-51
2023/06/02 08:45:41;;;;;;;44.72;10.63;;;;;;;11.89;83.30;101205.19;4995118;28;20053;-52
2023/06/02 08:48:13;;;;;;;35.33;9.77;;;;;;;11.91;83.04;101203.09;4994858;28;20088;-48
2023/06/02 08:50:42;;;;;;;32.67;9.55;;;;;;;11.85;82.83;101194.03;4994725;28;20033;-52
2023/06/02 08:53:14;;;;;;;41.10;10.63;;;;;;;11.88;82.97;101193.63;4994788;28;20425;-51
2023/06/02 08:55:41;;;;;;;35.95;9.95;;;;;;;11.81;82.97;101199.97;4994998;28;20036;-51
2023/06/02 08:58:11;;;;;;;37.42;10.32;;;;;;;11.79;83.45;101191.31;4993847;28;20117;-51
2023/06/02 09:00:38;;;;;;;31.88;9.32;;;;;;;11.90;83.04;101196.09;4994538;28;20018;-50
2023/06/02 09:03:05;;;;;;;39.75;11.13;;;;;;;11.87;82.91;101188.44;4994458;28;20030;-51
2023/06/02 09:05:33;;;;;;;33.10;9.77;;;;;;;12.00;82.30;101184.97;4994326;28;20109;-52
2023/06/02 09:08:19;;;;;;;39.42;10.48;;;;;;;11.98;82.88;101193.19;4993985;28;20514;-50
2023/06/02 09:10:48;;;;;;;41.80;10.32;;;;;;;11.96;82.61;101197.94;4994369;28;20478;-52
2023/06/02 09:13:36;;;;;;;39.70;11.32;;;;;;;12.00;82.51;101195.69;4994320;28;20030;-51
2023/06/02 09:16:03;;;;;;;37.50;10.00;;;;;;;11.93;82.54;101195.66;4994673;28;20446;-51
2023/06/02 09:18:30;;;;;;;41.67;10.30;;;;;;;11.86;83.37;101201.03;4994244;28;20022;-50
2023/06/02 09:20:59;;;;;;;33.22;10.15;;;;;;;11.83;83.45;101201.47;4994119;28;20053;-51
2023/06/02 09:23:43;;;;;;;42.03;10.57;;;;;;;11.91;82.85;101200.41;4994078;28;20109;-52
2023/06/02 09:26:28;;;;;;;35.03;10.45;;;;;;;11.94;83.03;101197.34;4994548;28;20030;-51
2023/06/02 09:29:15;;;;;;;37.25;10.05;;;;;;;11.93;83.10;101197.53;4994101;28;20026;-51
2023/06/02 09:31:54;;;;;;;31.38;9.48;;;;;;;11.82;83.54;101204.31;4993551;28;20029;-51
2023/06/02 09:34:32;;;;;;;37.47;11.15;;;;;;;11.83;83.21;101209.50;4994011;28;20106;-51
2023/06/02 09:37:16;;;;;;;42.63;8.93;;;;;;;11.82;82.84;101197.09;4993918;28;20054;-51
2023/06/02 09:39:48;;;;;;;34.92;9.88;;;;;;;11.84;83.00;101203.09;4994152;28;20041;-48
2023/06/02 09:42:21;;;;;;;35.80;9.77;;;;;;;11.81;83.10;101197.28;4993825;28;20038;-51
2023/06/02 09:45:07;;;;;;;36.53;9.93;;;;;;;11.84;83.12;101199.59;4993912;28;20065;-49
2023/06/02 09:47:39;;;;;;;35.55;9.70;;;;;;;11.70;83.18;101193.34;4994312;28;20033;-49
2023/06/02 09:50:05;;;;;;;43.08;9.93;;;;;;;11.83;82.51;101193.41;4993928;28;20050;-50
2023/06/02 09:52:32;;;;;;;33.58;9.07;;;;;;;11.79;82.55;101192.13;4993969;28;20410;-52
2023/06/02 09:54:59;;;;;;;35.08;9.73;;;;;;;11.71;82.84;101195.00;4993714;28;20018;-51
2023/06/02 09:57:25;;;;;;;32.05;10.20;;;;;;;11.78;82.74;101193.16;4993541;28;20510;-49
2023/06/02 09:59:52;;;;;;;36.58;9.27;;;;;;;11.80;82.37;101195.63;4994100;28;20038;-51
2023/06/02 10:02:18;;;;;;;33.45;8.50;;;;;;;11.66;83.01;101196.66;4993600;28;20026;-51
2023/06/02 10:04:45;;;;;;;32.35;9.13;;;;;;;11.73;82.69;101190.28;4993713;28;20034;-50
2023/06/02 10:07:41;;;;;;;36.47;10.80;;;;;;;11.63;82.98;101193.34;4994225;28;20042;-49
2023/06/02 10:10:37;;;;;;;42.28;9.60;;;;;;;11.79;82.33;101192.13;4993462;28;20031;-51
2023/06/02 10:13:48;;;;;;;28.25;9.50;;;;;;;11.69;82.39;101202.44;4993392;28;20104;-51
2023/06/02 10:16:43;;;;;;;29.73;9.38;;;;;;;11.60;82.52;101200.97;4985184;28;20054;-52
2023/06/02 10:19:19;;;;;;;30.35;9.82;;;;;;;11.67;82.38;101204.50;4993921;28;20126;-49
2023/06/02 10:22:19;;;;;;;31.33;10.13;;;;;;;11.64;82.48;101196.84;4993415;28;20026;-50
2023/06/02 10:24:51;;;;;;;34.35;9.10;;;;;;;11.54;82.97;101207.16;4993213;28;20050;-49
2023/06/02 10:27:36;;;;;;;33.50;8.80;;;;;;;11.58;82.80;101211.91;4994163;28;20046;-50
2023/06/02 10:30:03;;;;;;;29.00;9.27;;;;;;;11.60;82.87;101212.53;4993241;28;20093;-51
2023/06/02 10:32:41;;;;;;;30.70;8.88;;;;;;;11.63;82.33;101209.44;5008921;28;20092;-50
2023/06/02 10:35:07;;;;;;;36.55;9.63;;;;;;;11.67;82.07;101222.44;4993500;28;20427;-48
2023/06/02 10:37:34;;;;;;;30.95;8.98;;;;;;;11.56;82.34;101216.66;4993063;28;20038;-48
2023/06/02 10:40:00;;;;;;;33.50;9.18;;;;;;;11.63;81.97;101209.44;4993121;28;20050;-48
2023/06/02 10:42:30;;;;;;;26.92;8.82;;;;;;;11.57;82.55;101214.78;4993253;28;20022;-49
2023/06/02 10:45:27;;;;;;;31.15;9.00;;;;;;;11.57;82.44;101215.63;4993250;28;20033;-52
2023/06/02 10:47:53;;;;;;;32.20;8.25;;;;;;;11.58;82.09;101219.13;4991783;28;20398;-49
2023/06/02 10:50:24;;;;;;;29.10;9.02;;;;;;;11.53;82.43;101211.69;4993066;28;20022;-48
2023/06/02 10:53:10;;;;;;;25.55;8.27;;;;;;;11.59;82.46;101213.53;4993156;28;20083;-52
2023/06/02 10:55:37;;;;;;;34.78;10.45;;;;;;;11.55;82.87;101219.53;4993160;28;20030;-48
2023/06/02 10:58:05;;;;;;;31.00;9.20;;;;;;;11.45;83.25;101219.94;4993103;28;20026;-50
2023/06/02 11:00:39;;;;;;;27.92;9.75;;;;;;;11.42;83.70;101216.81;4993014;28;20022;-50
2023/06/02 11:03:17;;;;;;;28.90;8.00;;;;;;;11.46;82.89;101221.56;4992871;28;20041;-50
2023/06/02 11:05:54;;;;;;;29.60;8.27;;;;;;;11.51;82.87;101218.28;4992903;28;20033;-51
2023/06/02 11:08:23;;;;;;;31.58;8.77;;;;;;;11.51;83.14;101213.75;4993204;28;20069;-48
2023/06/02 11:10:58;;;;;;;30.30;9.13;;;;;;;11.36;83.76;101216.59;4992945;28;20030;-49
2023/06/02 11:13:28;;;;;;;31.85;8.55;;;;;;;11.41;83.54;101216.00;4992811;28;20026;-48
2023/06/02 11:15:58;;;;;;;27.45;7.80;;;;;;;11.39;83.61;101219.91;4992931;28;20027;-52
2023/06/02 11:18:33;;;;;;;38.90;8.98;;;;;;;11.33;83.71;101222.38;4992948;28;20097;-48
2023/06/02 11:21:00;;;;;;;32.42;8.23;;;;;;;11.41;83.30;101220.53;4994105;28;20104;-48
2023/06/02 11:23:27;;;;;;;26.73;8.20;;;;;;;11.42;83.13;101223.00;4996328;28;20153;-50